sensor_id;sensor_type;location;lat;lon;timestamp;temperature;humidity
65396;HTU21D;52004;45.136;39.010;2023-04-25T00:00:23;12.33;73.82
65396;HTU21D;52004;45.136;39.010;2023-04-25T00:02:49;12.33;73.84
65396;HTU21D;52004;45.136;39.010;2023-04-25T00:05:15;12.31;73.78
65396;HTU21D;52004;45.136;39.010;2023-04-25T00:07:41;12.28;73.83
65396;HTU21D;52004;45.136;39.010;2023-04-25T00:10:08;12.27;73.86
65396;HTU21D;52004;45.136;39.010;2023-04-25T00:12:34;12.26;73.85
65396;HTU21D;52004;45.136;39.010;2023-04-25T00:15:01;12.23;73.86
65396;HTU21D;52004;45.136;39.010;2023-04-25T00:17:27;12.20;73.93
65396;HTU21D;52004;45.136;39.010;2023-04-25T00:19:53;12.19;73.96
65396;HTU21D;52004;45.136;39.010;2023-04-25T00:22:20;12.18;73.93
65396;HTU21D;52004;45.136;39.010;2023-04-25T00:24:46;12.17;73.96
65396;HTU21D;52004;45.136;39.010;2023-04-25T00:27:12;12.17;73.90
65396;HTU21D;52004;45.136;39.010;2023-04-25T00:29:38;12.16;73.87
65396;HTU21D;52004;45.136;39.010;2023-04-25T00:32:04;12.16;73.89
65396;HTU21D;52004;45.136;39.010;2023-04-25T00:34:30;12.12;74.00
65396;HTU21D;52004;45.136;39.010;2023-04-25T00:36:56;12.10;74.00
65396;HTU21D;52004;45.136;39.010;2023-04-25T00:39:22;12.04;74.12
65396;HTU21D;52004;45.136;39.010;2023-04-25T00:41:48;12.03;74.17
65396;HTU21D;52004;45.136;39.010;2023-04-25T00:44:14;12.01;74.18
65396;HTU21D;52004;45.136;39.010;2023-04-25T00:46:42;12.01;74.18
65396;HTU21D;52004;45.136;39.010;2023-04-25T00:49:08;11.99;74.15
65396;HTU21D;52004;45.136;39.010;2023-04-25T00:51:34;11.97;74.18
65396;HTU21D;52004;45.136;39.010;2023-04-25T00:54:00;11.94;74.25
65396;HTU21D;52004;45.136;39.010;2023-04-25T00:56:27;11.94;74.30
65396;HTU21D;52004;45.136;39.010;2023-04-25T00:58:53;11.93;74.27
65396;HTU21D;52004;45.136;39.010;2023-04-25T01:01:21;11.93;74.25
65396;HTU21D;52004;45.136;39.010;2023-04-25T01:03:48;11.92;74.22
65396;HTU21D;52004;45.136;39.010;2023-04-25T01:06:15;11.93;74.30
65396;HTU21D;52004;45.136;39.010;2023-04-25T01:08:42;11.91;74.28
65396;HTU21D;52004;45.136;39.010;2023-04-25T01:11:09;11.92;74.35
65396;HTU21D;52004;45.136;39.010;2023-04-25T01:13:35;11.92;74.30
65396;HTU21D;52004;45.136;39.010;2023-04-25T01:16:01;11.91;74.35
65396;HTU21D;52004;45.136;39.010;2023-04-25T01:18:27;11.90;74.39
65396;HTU21D;52004;45.136;39.010;2023-04-25T01:20:53;11.91;74.35
65396;HTU21D;52004;45.136;39.010;2023-04-25T01:23:21;11.89;74.49
65396;HTU21D;52004;45.136;39.010;2023-04-25T01:25:48;11.89;74.41
65396;HTU21D;52004;45.136;39.010;2023-04-25T01:28:13;11.89;74.43
65396;HTU21D;52004;45.136;39.010;2023-04-25T01:30:40;11.89;74.37
65396;HTU21D;52004;45.136;39.010;2023-04-25T01:33:07;11.89;74.36
65396;HTU21D;52004;45.136;39.010;2023-04-25T01:35:33;11.91;74.31
65396;HTU21D;52004;45.136;39.010;2023-04-25T01:37:59;11.92;74.26
65396;HTU21D;52004;45.136;39.010;2023-04-25T01:40:25;11.88;74.38
65396;HTU21D;52004;45.136;39.010;2023-04-25T01:42:52;11.86;74.38
65396;HTU21D;52004;45.136;39.010;2023-04-25T01:45:19;11.86;74.42
65396;HTU21D;52004;45.136;39.010;2023-04-25T01:47:45;11.85;74.40
65396;HTU21D;52004;45.136;39.010;2023-04-25T01:50:15;11.87;74.36
65396;HTU21D;52004;45.136;39.010;2023-04-25T01:52:41;11.89;74.28
65396;HTU21D;52004;45.136;39.010;2023-04-25T01:55:08;11.88;74.29
65396;HTU21D;52004;45.136;39.010;2023-04-25T01:57:39;11.86;74.41
65396;HTU21D;52004;45.136;39.010;2023-04-25T02:00:06;11.85;74.41
65396;HTU21D;52004;45.136;39.010;2023-04-25T02:02:41;11.85;74.38
65396;HTU21D;52004;45.136;39.010;2023-04-25T02:05:22;11.84;74.60
65396;HTU21D;52004;45.136;39.010;2023-04-25T02:07:48;11.84;74.48
65396;HTU21D;52004;45.136;39.010;2023-04-25T02:10:14;11.83;74.45
65396;HTU21D;52004;45.136;39.010;2023-04-25T02:13:03;11.81;74.46
65396;HTU21D;52004;45.136;39.010;2023-04-25T02:15:59;11.78;74.52
65396;HTU21D;52004;45.136;39.010;2023-04-25T02:18:25;11.79;74.51
65396;HTU21D;52004;45.136;39.010;2023-04-25T02:20:51;11.78;74.44
65396;HTU21D;52004;45.136;39.010;2023-04-25T02:23:17;11.78;74.44
65396;HTU21D;52004;45.136;39.010;2023-04-25T02:25:44;11.79;74.41
65396;HTU21D;52004;45.136;39.010;2023-04-25T02:28:10;11.79;74.44
65396;HTU21D;52004;45.136;39.010;2023-04-25T02:30:36;11.77;74.51
65396;HTU21D;52004;45.136;39.010;2023-04-25T02:33:04;11.76;74.58
65396;HTU21D;52004;45.136;39.010;2023-04-25T02:35:30;11.77;74.64
65396;HTU21D;52004;45.136;39.010;2023-04-25T02:37:56;11.76;74.59
65396;HTU21D;52004;45.136;39.010;2023-04-25T02:40:21;11.76;74.67
65396;HTU21D;52004;45.136;39.010;2023-04-25T02:42:47;11.77;74.67
65396;HTU21D;52004;45.136;39.010;2023-04-25T02:45:13;11.79;74.64
65396;HTU21D;52004;45.136;39.010;2023-04-25T02:47:39;11.82;74.61
65396;HTU21D;52004;45.136;39.010;2023-04-25T02:50:05;11.83;74.62
65396;HTU21D;52004;45.136;39.010;2023-04-25T02:52:31;11.84;74.67
65396;HTU21D;52004;45.136;39.010;2023-04-25T02:55:13;11.84;74.68
65396;HTU21D;52004;45.136;39.010;2023-04-25T02:57:39;11.86;74.69
65396;HTU21D;52004;45.136;39.010;2023-04-25T03:00:05;11.88;74.72
65396;HTU21D;52004;45.136;39.010;2023-04-25T03:02:56;11.91;74.72
65396;HTU21D;52004;45.136;39.010;2023-04-25T03:05:22;11.92;74.66
65396;HTU21D;52004;45.136;39.010;2023-04-25T03:07:48;11.97;74.68
65396;HTU21D;52004;45.136;39.010;2023-04-25T03:10:15;12.00;74.66
65396;HTU21D;52004;45.136;39.010;2023-04-25T03:12:41;11.99;74.65
65396;HTU21D;52004;45.136;39.010;2023-04-25T03:15:07;12.02;74.64
65396;HTU21D;52004;45.136;39.010;2023-04-25T03:17:33;12.04;74.58
65396;HTU21D;52004;45.136;39.010;2023-04-25T03:19:59;12.08;74.54
65396;HTU21D;52004;45.136;39.010;2023-04-25T03:22:25;12.10;74.52
65396;HTU21D;52004;45.136;39.010;2023-04-25T03:24:51;12.14;74.42
65396;HTU21D;52004;45.136;39.010;2023-04-25T03:27:17;12.16;74.36
65396;HTU21D;52004;45.136;39.010;2023-04-25T03:29:43;12.15;74.36
65396;HTU21D;52004;45.136;39.010;2023-04-25T03:32:09;12.16;74.38
65396;HTU21D;52004;45.136;39.010;2023-04-25T03:34:35;12.14;74.46
65396;HTU21D;52004;45.136;39.010;2023-04-25T03:37:01;12.15;74.48
65396;HTU21D;52004;45.136;39.010;2023-04-25T03:39:30;12.14;74.55
65396;HTU21D;52004;45.136;39.010;2023-04-25T03:41:56;12.16;74.59
65396;HTU21D;52004;45.136;39.010;2023-04-25T03:44:22;12.18;74.61
65396;HTU21D;52004;45.136;39.010;2023-04-25T03:46:47;12.20;74.55
65396;HTU21D;52004;45.136;39.010;2023-04-25T03:49:14;12.25;74.51
65396;HTU21D;52004;45.136;39.010;2023-04-25T03:51:54;12.28;74.47
65396;HTU21D;52004;45.136;39.010;2023-04-25T03:54:21;12.30;74.47
65396;HTU21D;52004;45.136;39.010;2023-04-25T03:56:58;12.32;74.44
65396;HTU21D;52004;45.136;39.010;2023-04-25T03:59:26;12.35;74.42
65396;HTU21D;52004;45.136;39.010;2023-04-25T04:01:52;12.41;74.41
65396;HTU21D;52004;45.136;39.010;2023-04-25T04:04:18;12.45;74.41
65396;HTU21D;52004;45.136;39.010;2023-04-25T04:06:44;12.48;74.31
65396;HTU21D;52004;45.136;39.010;2023-04-25T04:09:22;12.51;74.28
65396;HTU21D;52004;45.136;39.010;2023-04-25T04:11:48;12.51;74.33
65396;HTU21D;52004;45.136;39.010;2023-04-25T04:14:14;12.53;74.31
65396;HTU21D;52004;45.136;39.010;2023-04-25T04:16:44;12.53;74.30
65396;HTU21D;52004;45.136;39.010;2023-04-25T04:19:10;12.53;74.31
65396;HTU21D;52004;45.136;39.010;2023-04-25T04:21:39;12.53;74.34
65396;HTU21D;52004;45.136;39.010;2023-04-25T04:24:06;12.53;74.33
65396;HTU21D;52004;45.136;39.010;2023-04-25T04:26:44;12.57;74.35
65396;HTU21D;52004;45.136;39.010;2023-04-25T04:29:27;12.61;74.29
65396;HTU21D;52004;45.136;39.010;2023-04-25T04:32:19;12.65;74.31
65396;HTU21D;52004;45.136;39.010;2023-04-25T04:34:46;12.73;74.29
65396;HTU21D;52004;45.136;39.010;2023-04-25T04:37:15;12.78;74.30
65396;HTU21D;52004;45.136;39.010;2023-04-25T04:39:41;12.87;74.25
65396;HTU21D;52004;45.136;39.010;2023-04-25T04:42:21;12.92;74.18
65396;HTU21D;52004;45.136;39.010;2023-04-25T04:45:14;12.96;74.05
65396;HTU21D;52004;45.136;39.010;2023-04-25T04:48:01;12.96;74.03
65396;HTU21D;52004;45.136;39.010;2023-04-25T04:50:28;13.00;74.06
65396;HTU21D;52004;45.136;39.010;2023-04-25T04:53:16;13.07;74.18
65396;HTU21D;52004;45.136;39.010;2023-04-25T04:56:05;13.14;74.09
65396;HTU21D;52004;45.136;39.010;2023-04-25T04:58:54;13.18;73.93
65396;HTU21D;52004;45.136;39.010;2023-04-25T05:01:38;13.15;73.83
65396;HTU21D;52004;45.136;39.010;2023-04-25T05:04:41;0.00;73.88
65396;HTU21D;52004;45.136;39.010;2023-04-25T05:07:25;13.08;73.84
65396;HTU21D;52004;45.136;39.010;2023-04-25T05:10:07;13.07;73.89
65396;HTU21D;52004;45.136;39.010;2023-04-25T05:12:52;0.00;73.86
65396;HTU21D;52004;45.136;39.010;2023-04-25T05:15:21;0.00;73.90
65396;HTU21D;52004;45.136;39.010;2023-04-25T05:18:05;13.09;73.96
65396;HTU21D;52004;45.136;39.010;2023-04-25T05:20:51;13.16;73.92
65396;HTU21D;52004;45.136;39.010;2023-04-25T05:23:37;13.18;73.81
65396;HTU21D;52004;45.136;39.010;2023-04-25T05:26:10;13.18;73.78
65396;HTU21D;52004;45.136;39.010;2023-04-25T05:28:49;13.17;73.74
65396;HTU21D;52004;45.136;39.010;2023-04-25T05:31:48;0.00;73.76
65396;HTU21D;52004;45.136;39.010;2023-04-25T05:34:15;13.18;73.77
65396;HTU21D;52004;45.136;39.010;2023-04-25T05:36:53;13.21;73.79
65396;HTU21D;52004;45.136;39.010;2023-04-25T05:39:19;0.00;73.76
65396;HTU21D;52004;45.136;39.010;2023-04-25T05:42:15;13.29;73.67
65396;HTU21D;52004;45.136;39.010;2023-04-25T05:44:54;13.32;73.59
65396;HTU21D;52004;45.136;39.010;2023-04-25T05:47:38;13.33;73.53
65396;HTU21D;52004;45.136;39.010;2023-04-25T05:50:18;13.31;73.51
65396;HTU21D;52004;45.136;39.010;2023-04-25T05:52:51;13.27;73.53
65396;HTU21D;52004;45.136;39.010;2023-04-25T05:55:37;0.00;73.55
65396;HTU21D;52004;45.136;39.010;2023-04-25T05:58:18;13.30;73.62
65396;HTU21D;52004;45.136;39.010;2023-04-25T06:00:44;13.32;73.64
65396;HTU21D;52004;45.136;39.010;2023-04-25T06:03:10;13.37;73.59
65396;HTU21D;52004;45.136;39.010;2023-04-25T06:05:36;13.44;73.61
65396;HTU21D;52004;45.136;39.010;2023-04-25T06:08:02;13.52;73.60
65396;HTU21D;52004;45.136;39.010;2023-04-25T06:10:28;13.61;73.53
65396;HTU21D;52004;45.136;39.010;2023-04-25T06:12:54;13.65;73.42
65396;HTU21D;52004;45.136;39.010;2023-04-25T06:15:22;13.69;73.44
65396;HTU21D;52004;45.136;39.010;2023-04-25T06:17:47;13.77;73.42
65396;HTU21D;52004;45.136;39.010;2023-04-25T06:20:14;13.81;73.41
65396;HTU21D;52004;45.136;39.010;2023-04-25T06:22:40;13.91;73.48
65396;HTU21D;52004;45.136;39.010;2023-04-25T06:25:06;14.00;73.46
65396;HTU21D;52004;45.136;39.010;2023-04-25T06:27:33;14.09;73.36
65396;HTU21D;52004;45.136;39.010;2023-04-25T06:29:59;14.13;73.24
65396;HTU21D;52004;45.136;39.010;2023-04-25T06:32:26;14.15;73.12
65396;HTU21D;52004;45.136;39.010;2023-04-25T06:34:53;14.19;73.11
65396;HTU21D;52004;45.136;39.010;2023-04-25T06:37:19;14.22;73.14
65396;HTU21D;52004;45.136;39.010;2023-04-25T06:39:45;14.28;73.19
65396;HTU21D;52004;45.136;39.010;2023-04-25T06:42:11;14.36;73.19
65396;HTU21D;52004;45.136;39.010;2023-04-25T06:44:56;14.44;73.07
65396;HTU21D;52004;45.136;39.010;2023-04-25T06:47:22;14.52;73.04
65396;HTU21D;52004;45.136;39.010;2023-04-25T06:49:49;14.59;73.02
65396;HTU21D;52004;45.136;39.010;2023-04-25T06:52:15;14.67;72.93
65396;HTU21D;52004;45.136;39.010;2023-04-25T06:54:44;14.73;72.82
65396;HTU21D;52004;45.136;39.010;2023-04-25T06:57:25;14.78;72.65
65396;HTU21D;52004;45.136;39.010;2023-04-25T06:59:53;14.80;72.54
65396;HTU21D;52004;45.136;39.010;2023-04-25T07:02:18;14.83;72.51
65396;HTU21D;52004;45.136;39.010;2023-04-25T07:04:44;14.88;72.48
65396;HTU21D;52004;45.136;39.010;2023-04-25T07:07:11;14.93;72.33
65396;HTU21D;52004;45.136;39.010;2023-04-25T07:09:44;14.96;72.35
65396;HTU21D;52004;45.136;39.010;2023-04-25T07:12:10;15.01;72.40
65396;HTU21D;52004;45.136;39.010;2023-04-25T07:14:37;15.11;72.54
65396;HTU21D;52004;45.136;39.010;2023-04-25T07:17:03;15.26;72.67
65396;HTU21D;52004;45.136;39.010;2023-04-25T07:19:32;15.38;72.31
65396;HTU21D;52004;45.136;39.010;2023-04-25T07:22:00;15.42;72.08
65396;HTU21D;52004;45.136;39.010;2023-04-25T07:24:26;15.41;71.96
65396;HTU21D;52004;45.136;39.010;2023-04-25T07:26:54;15.41;71.72
65396;HTU21D;52004;45.136;39.010;2023-04-25T07:29:32;15.39;71.52
65396;HTU21D;52004;45.136;39.010;2023-04-25T07:31:59;15.37;71.51
65396;HTU21D;52004;45.136;39.010;2023-04-25T07:34:25;15.32;71.40
65396;HTU21D;52004;45.136;39.010;2023-04-25T07:36:51;15.28;71.35
65396;HTU21D;52004;45.136;39.010;2023-04-25T07:39:18;0.00;71.37
65396;HTU21D;52004;45.136;39.010;2023-04-25T07:41:44;15.30;71.49
65396;HTU21D;52004;45.136;39.010;2023-04-25T07:44:17;15.34;71.42
65396;HTU21D;52004;45.136;39.010;2023-04-25T07:46:43;15.38;71.38
65396;HTU21D;52004;45.136;39.010;2023-04-25T07:49:10;15.42;71.22
65396;HTU21D;52004;45.136;39.010;2023-04-25T07:51:36;15.42;71.22
65396;HTU21D;52004;45.136;39.010;2023-04-25T07:54:07;15.46;71.22
65396;HTU21D;52004;45.136;39.010;2023-04-25T07:56:36;15.51;71.17
65396;HTU21D;52004;45.136;39.010;2023-04-25T07:59:02;15.60;71.34
65396;HTU21D;52004;45.136;39.010;2023-04-25T08:01:29;15.76;71.38
65396;HTU21D;52004;45.136;39.010;2023-04-25T08:03:58;15.90;71.04
65396;HTU21D;52004;45.136;39.010;2023-04-25T08:06:53;0.00;70.91
65396;HTU21D;52004;45.136;39.010;2023-04-25T08:09:23;16.14;70.68
65396;HTU21D;52004;45.136;39.010;2023-04-25T08:11:52;16.21;70.69
65396;HTU21D;52004;45.136;39.010;2023-04-25T08:14:22;16.33;70.72
65396;HTU21D;52004;45.136;39.010;2023-04-25T08:16:48;16.40;70.30
65396;HTU21D;52004;45.136;39.010;2023-04-25T08:19:15;16.31;69.90
65396;HTU21D;52004;45.136;39.010;2023-04-25T08:21:41;16.25;70.00
65396;HTU21D;52004;45.136;39.010;2023-04-25T08:24:11;16.22;70.01
65396;HTU21D;52004;45.136;39.010;2023-04-25T08:26:39;16.20;70.06
65396;HTU21D;52004;45.136;39.010;2023-04-25T08:29:07;16.26;70.11
65396;HTU21D;52004;45.136;39.010;2023-04-25T08:31:37;16.35;70.19
65396;HTU21D;52004;45.136;39.010;2023-04-25T08:34:04;16.50;70.26
65396;HTU21D;52004;45.136;39.010;2023-04-25T08:36:34;16.71;70.23
65396;HTU21D;52004;45.136;39.010;2023-04-25T08:39:02;16.89;70.03
65396;HTU21D;52004;45.136;39.010;2023-04-25T08:41:29;17.06;70.11
65396;HTU21D;52004;45.136;39.010;2023-04-25T08:43:55;0.00;69.64
65396;HTU21D;52004;45.136;39.010;2023-04-25T08:46:23;17.31;69.64
65396;HTU21D;52004;45.136;39.010;2023-04-25T08:49:04;17.43;69.56
65396;HTU21D;52004;45.136;39.010;2023-04-25T08:51:31;17.52;69.33
65396;HTU21D;52004;45.136;39.010;2023-04-25T08:54:08;17.61;69.27
65396;HTU21D;52004;45.136;39.010;2023-04-25T08:56:35;17.62;68.78
65396;HTU21D;52004;45.136;39.010;2023-04-25T08:59:02;17.61;68.65
65396;HTU21D;52004;45.136;39.010;2023-04-25T09:01:28;17.55;68.36
65396;HTU21D;52004;45.136;39.010;2023-04-25T09:03:56;17.47;68.30
65396;HTU21D;52004;45.136;39.010;2023-04-25T09:06:23;17.44;68.38
65396;HTU21D;52004;45.136;39.010;2023-04-25T09:08:49;17.45;68.20
65396;HTU21D;52004;45.136;39.010;2023-04-25T09:11:16;17.35;67.98
65396;HTU21D;52004;45.136;39.010;2023-04-25T09:13:42;17.33;68.23
65396;HTU21D;52004;45.136;39.010;2023-04-25T09:16:22;17.44;68.39
65396;HTU21D;52004;45.136;39.010;2023-04-25T09:19:20;17.48;68.06
65396;HTU21D;52004;45.136;39.010;2023-04-25T09:21:48;17.56;68.16
65396;HTU21D;52004;45.136;39.010;2023-04-25T09:24:14;17.61;68.03
65396;HTU21D;52004;45.136;39.010;2023-04-25T09:26:40;17.64;67.94
65396;HTU21D;52004;45.136;39.010;2023-04-25T09:29:07;17.63;67.62
65396;HTU21D;52004;45.136;39.010;2023-04-25T09:31:36;17.55;67.60
65396;HTU21D;52004;45.136;39.010;2023-04-25T09:34:03;17.50;67.42
65396;HTU21D;52004;45.136;39.010;2023-04-25T09:36:38;17.48;67.25
65396;HTU21D;52004;45.136;39.010;2023-04-25T09:39:37;17.43;67.42
65396;HTU21D;52004;45.136;39.010;2023-04-25T09:42:11;17.55;67.70
65396;HTU21D;52004;45.136;39.010;2023-04-25T09:44:37;17.68;67.41
65396;HTU21D;52004;45.136;39.010;2023-04-25T09:47:09;17.78;67.17
65396;HTU21D;52004;45.136;39.010;2023-04-25T09:49:35;17.83;67.17
65396;HTU21D;52004;45.136;39.010;2023-04-25T09:52:09;17.90;66.99
65396;HTU21D;52004;45.136;39.010;2023-04-25T09:54:50;17.96;66.91
65396;HTU21D;52004;45.136;39.010;2023-04-25T09:57:23;17.95;66.75
65396;HTU21D;52004;45.136;39.010;2023-04-25T09:59:50;17.98;66.79
65396;HTU21D;52004;45.136;39.010;2023-04-25T10:02:17;18.06;66.64
65396;HTU21D;52004;45.136;39.010;2023-04-25T10:04:48;18.12;66.49
65396;HTU21D;52004;45.136;39.010;2023-04-25T10:07:24;18.20;66.42
65396;HTU21D;52004;45.136;39.010;2023-04-25T10:09:53;18.23;66.18
65396;HTU21D;52004;45.136;39.010;2023-04-25T10:12:21;18.35;66.28
65396;HTU21D;52004;45.136;39.010;2023-04-25T10:14:47;18.37;65.79
65396;HTU21D;52004;45.136;39.010;2023-04-25T10:17:13;18.32;65.82
65396;HTU21D;52004;45.136;39.010;2023-04-25T10:19:39;18.33;65.92
65396;HTU21D;52004;45.136;39.010;2023-04-25T10:24:31;18.44;65.65
65396;HTU21D;52004;45.136;39.010;2023-04-25T10:26:58;18.44;65.41
65396;HTU21D;52004;45.136;39.010;2023-04-25T10:29:24;18.50;65.47
65396;HTU21D;52004;45.136;39.010;2023-04-25T10:31:51;18.48;65.16
65396;HTU21D;52004;45.136;39.010;2023-04-25T10:34:17;18.41;65.12
65396;HTU21D;52004;45.136;39.010;2023-04-25T10:36:48;18.38;65.24
65396;HTU21D;52004;45.136;39.010;2023-04-25T10:39:14;18.38;65.24
65396;HTU21D;52004;45.136;39.010;2023-04-25T10:41:47;18.47;65.34
65396;HTU21D;52004;45.136;39.010;2023-04-25T10:44:13;18.59;64.93
65396;HTU21D;52004;45.136;39.010;2023-04-25T10:46:40;18.65;64.94
65396;HTU21D;52004;45.136;39.010;2023-04-25T10:49:05;18.73;64.78
65396;HTU21D;52004;45.136;39.010;2023-04-25T10:51:34;18.72;64.50
65396;HTU21D;52004;45.136;39.010;2023-04-25T10:54:01;0.00;64.21
65396;HTU21D;52004;45.136;39.010;2023-04-25T10:56:35;18.39;64.24
65396;HTU21D;52004;45.136;39.010;2023-04-25T11:01:42;18.39;64.53
65396;HTU21D;52004;45.136;39.010;2023-04-25T11:06:58;18.48;64.22
65396;HTU21D;52004;45.136;39.010;2023-04-25T11:09:25;18.47;64.37
65396;HTU21D;52004;45.136;39.010;2023-04-25T11:11:55;18.54;64.35
65396;HTU21D;52004;45.136;39.010;2023-04-25T11:14:21;0.00;64.36
65396;HTU21D;52004;45.136;39.010;2023-04-25T11:16:47;18.64;64.13
65396;HTU21D;52004;45.136;39.010;2023-04-25T11:19:19;18.61;63.99
65396;HTU21D;52004;45.136;39.010;2023-04-25T11:21:44;18.55;63.98
65396;HTU21D;52004;45.136;39.010;2023-04-25T11:24:10;18.48;63.89
65396;HTU21D;52004;45.136;39.010;2023-04-25T11:26:36;18.38;63.85
65396;HTU21D;52004;45.136;39.010;2023-04-25T11:29:03;18.33;63.99
65396;HTU21D;52004;45.136;39.010;2023-04-25T11:31:29;18.24;64.08
65396;HTU21D;52004;45.136;39.010;2023-04-25T11:33:58;18.32;64.30
65396;HTU21D;52004;45.136;39.010;2023-04-25T11:36:24;18.41;64.22
65396;HTU21D;52004;45.136;39.010;2023-04-25T11:38:51;18.50;64.10
65396;HTU21D;52004;45.136;39.010;2023-04-25T11:41:17;18.61;64.09
65396;HTU21D;52004;45.136;39.010;2023-04-25T11:43:43;18.70;63.97
65396;HTU21D;52004;45.136;39.010;2023-04-25T11:46:09;18.80;63.80
65396;HTU21D;52004;45.136;39.010;2023-04-25T11:48:38;18.83;63.67
65396;HTU21D;52004;45.136;39.010;2023-04-25T11:51:04;18.89;63.63
65396;HTU21D;52004;45.136;39.010;2023-04-25T11:53:30;18.92;63.35
65396;HTU21D;52004;45.136;39.010;2023-04-25T11:55:56;18.85;63.26
65396;HTU21D;52004;45.136;39.010;2023-04-25T11:58:22;18.82;63.27
65396;HTU21D;52004;45.136;39.010;2023-04-25T12:00:48;18.71;63.18
65396;HTU21D;52004;45.136;39.010;2023-04-25T12:03:15;18.59;63.06
65396;HTU21D;52004;45.136;39.010;2023-04-25T12:05:41;18.52;63.26
65396;HTU21D;52004;45.136;39.010;2023-04-25T12:08:10;18.49;63.35
65396;HTU21D;52004;45.136;39.010;2023-04-25T12:10:37;18.49;63.33
65396;HTU21D;52004;45.136;39.010;2023-04-25T12:16:03;18.52;63.24
65396;HTU21D;52004;45.136;39.010;2023-04-25T12:18:29;18.49;63.11
65396;HTU21D;52004;45.136;39.010;2023-04-25T12:20:56;18.40;62.89
65396;HTU21D;52004;45.136;39.010;2023-04-25T12:23:27;18.34;63.11
65396;HTU21D;52004;45.136;39.010;2023-04-25T12:25:53;18.32;63.18
65396;HTU21D;52004;45.136;39.010;2023-04-25T12:28:20;18.32;63.34
65396;HTU21D;52004;45.136;39.010;2023-04-25T12:31:02;18.33;63.26
65396;HTU21D;52004;45.136;39.010;2023-04-25T12:33:29;18.29;63.06
65396;HTU21D;52004;45.136;39.010;2023-04-25T12:35:56;18.25;62.80
65396;HTU21D;52004;45.136;39.010;2023-04-25T12:38:26;18.24;63.07
65396;HTU21D;52004;45.136;39.010;2023-04-25T12:40:53;18.25;63.15
65396;HTU21D;52004;45.136;39.010;2023-04-25T12:43:19;18.33;63.15
65396;HTU21D;52004;45.136;39.010;2023-04-25T12:49:26;18.40;63.00
65396;HTU21D;52004;45.136;39.010;2023-04-25T12:51:52;18.41;63.11
65396;HTU21D;52004;45.136;39.010;2023-04-25T12:54:18;18.46;63.05
65396;HTU21D;52004;45.136;39.010;2023-04-25T12:56:44;18.49;63.09
65396;HTU21D;52004;45.136;39.010;2023-04-25T12:59:10;18.53;63.03
65396;HTU21D;52004;45.136;39.010;2023-04-25T13:01:36;18.56;63.02
65396;HTU21D;52004;45.136;39.010;2023-04-25T13:04:02;18.67;63.17
65396;HTU21D;52004;45.136;39.010;2023-04-25T13:06:28;18.76;62.96
65396;HTU21D;52004;45.136;39.010;2023-04-25T13:08:56;18.76;62.79
65396;HTU21D;52004;45.136;39.010;2023-04-25T13:11:22;18.67;62.53
65396;HTU21D;52004;45.136;39.010;2023-04-25T13:13:48;18.61;62.59
65396;HTU21D;52004;45.136;39.010;2023-04-25T13:16:14;18.57;62.85
65396;HTU21D;52004;45.136;39.010;2023-04-25T13:18:39;18.57;62.82
65396;HTU21D;52004;45.136;39.010;2023-04-25T13:21:06;18.55;62.57
65396;HTU21D;52004;45.136;39.010;2023-04-25T13:23:34;18.50;62.57
65396;HTU21D;52004;45.136;39.010;2023-04-25T13:26:00;18.52;62.82
65396;HTU21D;52004;45.136;39.010;2023-04-25T13:28:27;18.56;62.70
65396;HTU21D;52004;45.136;39.010;2023-04-25T13:30:53;18.57;62.67
65396;HTU21D;52004;45.136;39.010;2023-04-25T13:33:19;18.65;62.65
65396;HTU21D;52004;45.136;39.010;2023-04-25T13:35:46;18.65;62.31
65396;HTU21D;52004;45.136;39.010;2023-04-25T13:38:12;18.51;61.97
65396;HTU21D;52004;45.136;39.010;2023-04-25T13:40:39;18.36;62.06
65396;HTU21D;52004;45.136;39.010;2023-04-25T13:43:05;18.21;62.24
65396;HTU21D;52004;45.136;39.010;2023-04-25T13:45:32;18.12;62.47
65396;HTU21D;52004;45.136;39.010;2023-04-25T13:47:58;18.17;62.66
65396;HTU21D;52004;45.136;39.010;2023-04-25T13:50:23;18.28;62.66
65396;HTU21D;52004;45.136;39.010;2023-04-25T13:52:49;18.37;62.40
65396;HTU21D;52004;45.136;39.010;2023-04-25T13:55:15;18.41;62.22
65396;HTU21D;52004;45.136;39.010;2023-04-25T13:57:41;18.41;62.19
65396;HTU21D;52004;45.136;39.010;2023-04-25T14:00:07;18.44;62.07
65396;HTU21D;52004;45.136;39.010;2023-04-25T14:02:34;18.47;61.97
65396;HTU21D;52004;45.136;39.010;2023-04-25T14:05:01;18.48;61.75
65396;HTU21D;52004;45.136;39.010;2023-04-25T14:07:27;18.47;61.55
65396;HTU21D;52004;45.136;39.010;2023-04-25T14:09:53;18.41;61.70
65396;HTU21D;52004;45.136;39.010;2023-04-25T14:12:18;18.35;61.33
65396;HTU21D;52004;45.136;39.010;2023-04-25T14:14:44;18.19;61.66
65396;HTU21D;52004;45.136;39.010;2023-04-25T14:17:10;18.13;61.89
65396;HTU21D;52004;45.136;39.010;2023-04-25T14:19:36;18.14;62.05
65396;HTU21D;52004;45.136;39.010;2023-04-25T14:22:04;18.17;61.92
65396;HTU21D;52004;45.136;39.010;2023-04-25T14:24:30;18.14;61.99
65396;HTU21D;52004;45.136;39.010;2023-04-25T14:26:56;18.18;62.02
65396;HTU21D;52004;45.136;39.010;2023-04-25T14:29:22;18.18;61.78
65396;HTU21D;52004;45.136;39.010;2023-04-25T14:31:48;18.11;61.62
65396;HTU21D;52004;45.136;39.010;2023-04-25T14:34:14;18.04;61.83
65396;HTU21D;52004;45.136;39.010;2023-04-25T14:36:40;17.94;61.78
65396;HTU21D;52004;45.136;39.010;2023-04-25T14:39:06;17.85;62.03
65396;HTU21D;52004;45.136;39.010;2023-04-25T14:41:32;17.81;62.11
65396;HTU21D;52004;45.136;39.010;2023-04-25T14:43:58;0.00;62.40
65396;HTU21D;52004;45.136;39.010;2023-04-25T14:46:24;17.75;62.60
65396;HTU21D;52004;45.136;39.010;2023-04-25T14:48:50;17.74;62.59
65396;HTU21D;52004;45.136;39.010;2023-04-25T14:51:16;17.70;62.80
65396;HTU21D;52004;45.136;39.010;2023-04-25T14:53:42;17.68;62.90
65396;HTU21D;52004;45.136;39.010;2023-04-25T14:56:08;17.68;62.89
65396;HTU21D;52004;45.136;39.010;2023-04-25T14:58:34;17.65;62.84
65396;HTU21D;52004;45.136;39.010;2023-04-25T15:01:00;17.63;62.93
65396;HTU21D;52004;45.136;39.010;2023-04-25T15:03:26;17.62;62.95
65396;HTU21D;52004;45.136;39.010;2023-04-25T15:05:54;17.61;62.95
65396;HTU21D;52004;45.136;39.010;2023-04-25T15:08:20;17.59;62.86
65396;HTU21D;52004;45.136;39.010;2023-04-25T15:10:46;17.56;62.79
65396;HTU21D;52004;45.136;39.010;2023-04-25T15:13:12;17.54;62.69
65396;HTU21D;52004;45.136;39.010;2023-04-25T15:15:38;17.48;62.57
65396;HTU21D;52004;45.136;39.010;2023-04-25T15:18:05;17.41;62.47
65396;HTU21D;52004;45.136;39.010;2023-04-25T15:20:31;17.37;62.54
65396;HTU21D;52004;45.136;39.010;2023-04-25T15:22:57;17.34;62.41
65396;HTU21D;52004;45.136;39.010;2023-04-25T15:25:23;17.26;62.37
65396;HTU21D;52004;45.136;39.010;2023-04-25T15:27:49;17.20;62.33